sensor_id;sensor_type;location;lat;lon;timestamp;P1;durP1;ratioP1;P2;durP2;ratioP2
63499;SDS011;49654;51.142;14.924;2023-12-29T00:00:49;6.13;;;5.22;;
63499;SDS011;49654;51.142;14.924;2023-12-29T00:03:16;6.57;;;5.50;;
63499;SDS011;49654;51.142;14.924;2023-12-29T00:05:44;6.57;;;4.60;;
63499;SDS011;49654;51.142;14.924;2023-12-29T00:08:11;7.03;;;5.30;;
63499;SDS011;49654;51.142;14.924;2023-12-29T00:10:38;6.72;;;5.13;;
63499;SDS011;49654;51.142;14.924;2023-12-29T00:13:05;6.45;;;5.10;;
63499;SDS011;49654;51.142;14.924;2023-12-29T00:15:32;6.90;;;5.32;;
63499;SDS011;49654;51.142;14.924;2023-12-29T00:17:59;7.00;;;5.15;;
63499;SDS011;49654;51.142;14.924;2023-12-29T00:20:26;5.93;;;4.75;;
63499;SDS011;49654;51.142;14.924;2023-12-29T00:22:55;8.07;;;5.50;;
63499;SDS011;49654;51.142;14.924;2023-12-29T00:25:24;6.40;;;4.88;;
63499;SDS011;49654;51.142;14.924;2023-12-29T00:27:51;7.03;;;5.72;;
63499;SDS011;49654;51.142;14.924;2023-12-29T00:30:18;6.22;;;4.75;;
63499;SDS011;49654;51.142;14.924;2023-12-29T00:32:46;6.05;;;4.57;;
63499;SDS011;49654;51.142;14.924;2023-12-29T00:35:13;7.03;;;5.28;;
63499;SDS011;49654;51.142;14.924;2023-12-29T00:37:40;7.03;;;5.63;;
63499;SDS011;49654;51.142;14.924;2023-12-29T00:40:09;6.43;;;5.00;;
63499;SDS011;49654;51.142;14.924;2023-12-29T00:42:36;6.20;;;5.00;;
63499;SDS011;49654;51.142;14.924;2023-12-29T00:45:04;6.82;;;4.60;;
63499;SDS011;49654;51.142;14.924;2023-12-29T00:47:31;6.10;;;4.57;;
63499;SDS011;49654;51.142;14.924;2023-12-29T00:49:58;5.93;;;4.63;;
63499;SDS011;49654;51.142;14.924;2023-12-29T00:52:25;6.05;;;4.80;;
63499;SDS011;49654;51.142;14.924;2023-12-29T00:54:52;6.97;;;4.40;;
63499;SDS011;49654;51.142;14.924;2023-12-29T00:57:20;6.50;;;4.63;;
63499;SDS011;49654;51.142;14.924;2023-12-29T00:59:47;5.15;;;4.25;;
63499;SDS011;49654;51.142;14.924;2023-12-29T01:02:14;5.90;;;4.43;;
63499;SDS011;49654;51.142;14.924;2023-12-29T01:04:41;5.57;;;4.40;;
63499;SDS011;49654;51.142;14.924;2023-12-29T01:07:08;6.50;;;4.70;;
63499;SDS011;49654;51.142;14.924;2023-12-29T01:09:37;6.97;;;4.50;;
63499;SDS011;49654;51.142;14.924;2023-12-29T01:12:05;5.10;;;4.28;;
63499;SDS011;49654;51.142;14.924;2023-12-29T01:14:34;5.90;;;4.50;;
63499;SDS011;49654;51.142;14.924;2023-12-29T01:17:01;6.57;;;4.65;;
63499;SDS011;49654;51.142;14.924;2023-12-29T01:19:29;5.60;;;4.43;;
63499;SDS011;49654;51.142;14.924;2023-12-29T01:21:55;7.40;;;4.83;;
63499;SDS011;49654;51.142;14.924;2023-12-29T01:24:22;6.05;;;3.97;;
63499;SDS011;49654;51.142;14.924;2023-12-29T01:26:49;6.75;;;4.10;;
63499;SDS011;49654;51.142;14.924;2023-12-29T01:29:16;5.85;;;4.00;;
63499;SDS011;49654;51.142;14.924;2023-12-29T01:31:44;6.15;;;4.35;;
63499;SDS011;49654;51.142;14.924;2023-12-29T01:34:11;6.70;;;4.18;;
63499;SDS011;49654;51.142;14.924;2023-12-29T01:36:38;6.45;;;4.47;;
63499;SDS011;49654;51.142;14.924;2023-12-29T01:39:05;6.43;;;4.37;;
63499;SDS011;49654;51.142;14.924;2023-12-29T01:41:32;5.60;;;4.50;;
63499;SDS011;49654;51.142;14.924;2023-12-29T01:46:56;6.05;;;4.10;;
63499;SDS011;49654;51.142;14.924;2023-12-29T01:49:25;5.13;;;4.20;;
63499;SDS011;49654;51.142;14.924;2023-12-29T01:51:53;6.38;;;4.40;;
63499;SDS011;49654;51.142;14.924;2023-12-29T01:54:22;7.57;;;4.33;;
63499;SDS011;49654;51.142;14.924;2023-12-29T01:56:51;6.90;;;4.47;;
63499;SDS011;49654;51.142;14.924;2023-12-29T01:59:20;5.50;;;4.47;;
63499;SDS011;49654;51.142;14.924;2023-12-29T02:01:48;5.13;;;4.40;;
63499;SDS011;49654;51.142;14.924;2023-12-29T02:04:16;5.43;;;4.73;;
63499;SDS011;49654;51.142;14.924;2023-12-29T02:06:45;8.18;;;4.82;;
63499;SDS011;49654;51.142;14.924;2023-12-29T02:09:12;5.93;;;4.87;;
63499;SDS011;49654;51.142;14.924;2023-12-29T02:11:41;6.03;;;4.70;;
63499;SDS011;49654;51.142;14.924;2023-12-29T02:14:08;7.30;;;5.10;;
63499;SDS011;49654;51.142;14.924;2023-12-29T02:16:38;7.80;;;5.37;;
63499;SDS011;49654;51.142;14.924;2023-12-29T02:19:13;6.97;;;4.93;;
63499;SDS011;49654;51.142;14.924;2023-12-29T02:21:51;6.45;;;4.50;;
63499;SDS011;49654;51.142;14.924;2023-12-29T02:24:18;6.50;;;4.90;;
63499;SDS011;49654;51.142;14.924;2023-12-29T02:26:47;6.47;;;4.80;;
63499;SDS011;49654;51.142;14.924;2023-12-29T02:29:19;6.65;;;5.10;;
63499;SDS011;49654;51.142;14.924;2023-12-29T02:31:50;5.87;;;4.90;;
63499;SDS011;49654;51.142;14.924;2023-12-29T02:34:22;7.18;;;5.13;;
63499;SDS011;49654;51.142;14.924;2023-12-29T02:36:51;8.63;;;5.70;;
63499;SDS011;49654;51.142;14.924;2023-12-29T02:39:19;6.20;;;5.10;;
63499;SDS011;49654;51.142;14.924;2023-12-29T02:41:47;7.45;;;5.15;;
63499;SDS011;49654;51.142;14.924;2023-12-29T02:44:14;7.05;;;5.47;;
63499;SDS011;49654;51.142;14.924;2023-12-29T02:46:41;6.38;;;5.00;;
63499;SDS011;49654;51.142;14.924;2023-12-29T02:49:08;7.37;;;5.20;;
63499;SDS011;49654;51.142;14.924;2023-12-29T02:51:38;6.68;;;5.40;;
63499;SDS011;49654;51.142;14.924;2023-12-29T02:54:06;7.30;;;5.27;;
63499;SDS011;49654;51.142;14.924;2023-12-29T02:56:33;7.00;;;4.80;;
63499;SDS011;49654;51.142;14.924;2023-12-29T02:59:02;6.55;;;5.30;;
63499;SDS011;49654;51.142;14.924;2023-12-29T03:01:29;6.73;;;5.40;;
63499;SDS011;49654;51.142;14.924;2023-12-29T03:03:56;6.87;;;5.43;;
63499;SDS011;49654;51.142;14.924;2023-12-29T03:06:23;5.93;;;5.05;;
63499;SDS011;49654;51.142;14.924;2023-12-29T03:08:50;6.32;;;4.85;;
63499;SDS011;49654;51.142;14.924;2023-12-29T03:11:17;7.22;;;5.50;;
63499;SDS011;49654;51.142;14.924;2023-12-29T03:13:44;6.60;;;5.73;;
63499;SDS011;49654;51.142;14.924;2023-12-29T03:16:13;8.20;;;6.07;;
63499;SDS011;49654;51.142;14.924;2023-12-29T03:18:40;6.93;;;5.40;;
63499;SDS011;49654;51.142;14.924;2023-12-29T03:21:07;7.85;;;6.15;;
63499;SDS011;49654;51.142;14.924;2023-12-29T03:23:34;7.47;;;6.20;;
63499;SDS011;49654;51.142;14.924;2023-12-29T03:26:01;7.00;;;6.13;;
63499;SDS011;49654;51.142;14.924;2023-12-29T03:28:28;8.80;;;6.27;;
63499;SDS011;49654;51.142;14.924;2023-12-29T03:30:55;7.00;;;6.23;;
63499;SDS011;49654;51.142;14.924;2023-12-29T03:33:23;9.90;;;6.38;;
63499;SDS011;49654;51.142;14.924;2023-12-29T03:35:50;9.73;;;6.50;;
63499;SDS011;49654;51.142;14.924;2023-12-29T03:38:17;9.70;;;6.38;;
63499;SDS011;49654;51.142;14.924;2023-12-29T03:40:44;7.73;;;6.30;;
63499;SDS011;49654;51.142;14.924;2023-12-29T03:43:11;9.87;;;7.17;;
63499;SDS011;49654;51.142;14.924;2023-12-29T03:45:38;8.18;;;6.97;;
63499;SDS011;49654;51.142;14.924;2023-12-29T03:48:05;7.57;;;6.65;;
63499;SDS011;49654;51.142;14.924;2023-12-29T03:50:35;7.40;;;6.60;;
63499;SDS011;49654;51.142;14.924;2023-12-29T03:53:02;8.30;;;6.70;;
63499;SDS011;49654;51.142;14.924;2023-12-29T03:55:29;7.93;;;6.65;;
63499;SDS011;49654;51.142;14.924;2023-12-29T03:57:56;8.07;;;6.72;;
63499;SDS011;49654;51.142;14.924;2023-12-29T04:00:23;7.10;;;6.40;;
63499;SDS011;49654;51.142;14.924;2023-12-29T04:02:50;8.60;;;6.53;;
63499;SDS011;49654;51.142;14.924;2023-12-29T04:05:19;8.60;;;6.15;;
63499;SDS011;49654;51.142;14.924;2023-12-29T04:07:47;7.10;;;6.10;;
63499;SDS011;49654;51.142;14.924;2023-12-29T04:10:14;8.35;;;6.72;;
63499;SDS011;49654;51.142;14.924;2023-12-29T04:12:41;7.50;;;6.30;;
63499;SDS011;49654;51.142;14.924;2023-12-29T04:15:08;7.93;;;5.77;;
63499;SDS011;49654;51.142;14.924;2023-12-29T04:17:36;8.10;;;6.15;;
63499;SDS011;49654;51.142;14.924;2023-12-29T04:20:03;7.93;;;6.38;;
63499;SDS011;49654;51.142;14.924;2023-12-29T04:22:30;8.25;;;6.32;;
63499;SDS011;49654;51.142;14.924;2023-12-29T04:24:59;6.68;;;5.97;;
63499;SDS011;49654;51.142;14.924;2023-12-29T04:27:26;6.97;;;5.93;;
63499;SDS011;49654;51.142;14.924;2023-12-29T04:29:53;6.80;;;5.90;;
63499;SDS011;49654;51.142;14.924;2023-12-29T04:32:20;7.60;;;6.43;;
63499;SDS011;49654;51.142;14.924;2023-12-29T04:34:46;8.85;;;6.50;;
63499;SDS011;49654;51.142;14.924;2023-12-29T04:37:13;6.25;;;5.65;;
63499;SDS011;49654;51.142;14.924;2023-12-29T04:39:40;8.05;;;6.32;;
63499;SDS011;49654;51.142;14.924;2023-12-29T04:42:09;9.07;;;6.27;;
63499;SDS011;49654;51.142;14.924;2023-12-29T04:44:35;9.30;;;6.97;;
63499;SDS011;49654;51.142;14.924;2023-12-29T04:47:02;8.00;;;7.00;;
63499;SDS011;49654;51.142;14.924;2023-12-29T04:49:29;7.87;;;6.17;;
63499;SDS011;49654;51.142;14.924;2023-12-29T04:51:56;8.27;;;6.50;;
63499;SDS011;49654;51.142;14.924;2023-12-29T04:54:24;7.07;;;5.90;;
63499;SDS011;49654;51.142;14.924;2023-12-29T04:56:51;8.32;;;6.40;;
63499;SDS011;49654;51.142;14.924;2023-12-29T04:59:19;8.98;;;6.13;;
63499;SDS011;49654;51.142;14.924;2023-12-29T05:01:46;7.85;;;6.45;;
63499;SDS011;49654;51.142;14.924;2023-12-29T05:04:13;7.95;;;6.28;;
63499;SDS011;49654;51.142;14.924;2023-12-29T05:06:42;7.82;;;6.20;;
63499;SDS011;49654;51.142;14.924;2023-12-29T05:09:09;8.45;;;5.95;;
63499;SDS011;49654;51.142;14.924;2023-12-29T05:11:36;10.27;;;5.78;;
63499;SDS011;49654;51.142;14.924;2023-12-29T05:14:03;8.15;;;5.93;;
63499;SDS011;49654;51.142;14.924;2023-12-29T05:16:31;6.93;;;6.20;;
63499;SDS011;49654;51.142;14.924;2023-12-29T05:18:58;7.20;;;6.30;;
63499;SDS011;49654;51.142;14.924;2023-12-29T05:21:25;7.53;;;6.05;;
63499;SDS011;49654;51.142;14.924;2023-12-29T05:23:52;7.97;;;5.82;;
63499;SDS011;49654;51.142;14.924;2023-12-29T05:26:19;7.90;;;5.95;;
63499;SDS011;49654;51.142;14.924;2023-12-29T05:28:46;9.68;;;6.07;;
63499;SDS011;49654;51.142;14.924;2023-12-29T05:31:13;6.70;;;5.47;;
63499;SDS011;49654;51.142;14.924;2023-12-29T05:33:41;7.38;;;5.88;;
63499;SDS011;49654;51.142;14.924;2023-12-29T05:36:09;8.52;;;5.20;;
63499;SDS011;49654;51.142;14.924;2023-12-29T05:38:36;6.28;;;5.38;;
63499;SDS011;49654;51.142;14.924;2023-12-29T05:41:04;7.73;;;5.93;;
63499;SDS011;49654;51.142;14.924;2023-12-29T05:43:31;6.00;;;5.25;;
63499;SDS011;49654;51.142;14.924;2023-12-29T05:46:00;8.52;;;5.47;;
63499;SDS011;49654;51.142;14.924;2023-12-29T05:48:27;6.30;;;5.50;;
63499;SDS011;49654;51.142;14.924;2023-12-29T05:50:55;7.07;;;5.28;;
63499;SDS011;49654;51.142;14.924;2023-12-29T05:53:22;6.40;;;5.50;;
63499;SDS011;49654;51.142;14.924;2023-12-29T05:55:49;7.82;;;5.68;;
63499;SDS011;49654;51.142;14.924;2023-12-29T05:58:16;7.18;;;5.78;;
63499;SDS011;49654;51.142;14.924;2023-12-29T06:00:43;6.25;;;5.43;;
63499;SDS011;49654;51.142;14.924;2023-12-29T06:03:10;6.93;;;5.22;;
63499;SDS011;49654;51.142;14.924;2023-12-29T06:05:37;6.15;;;5.05;;
63499;SDS011;49654;51.142;14.924;2023-12-29T06:08:06;6.10;;;5.20;;
63499;SDS011;49654;51.142;14.924;2023-12-29T06:10:33;6.20;;;5.17;;
63499;SDS011;49654;51.142;14.924;2023-12-29T06:13:02;6.07;;;5.32;;
63499;SDS011;49654;51.142;14.924;2023-12-29T06:15:29;7.13;;;5.03;;
63499;SDS011;49654;51.142;14.924;2023-12-29T06:17:56;6.30;;;4.90;;
63499;SDS011;49654;51.142;14.924;2023-12-29T06:20:23;7.43;;;4.93;;
63499;SDS011;49654;51.142;14.924;2023-12-29T06:22:50;5.32;;;4.82;;
63499;SDS011;49654;51.142;14.924;2023-12-29T06:25:19;6.33;;;5.07;;
63499;SDS011;49654;51.142;14.924;2023-12-29T06:27:46;8.90;;;6.00;;
63499;SDS011;49654;51.142;14.924;2023-12-29T06:30:13;6.95;;;5.30;;
63499;SDS011;49654;51.142;14.924;2023-12-29T06:32:41;6.78;;;5.05;;
63499;SDS011;49654;51.142;14.924;2023-12-29T06:35:08;7.32;;;5.25;;
63499;SDS011;49654;51.142;14.924;2023-12-29T06:37:36;7.18;;;5.57;;
63499;SDS011;49654;51.142;14.924;2023-12-29T06:40:05;5.32;;;4.82;;
63499;SDS011;49654;51.142;14.924;2023-12-29T06:42:34;6.18;;;5.18;;
63499;SDS011;49654;51.142;14.924;2023-12-29T06:45:01;6.88;;;4.82;;
63499;SDS011;49654;51.142;14.924;2023-12-29T06:47:28;6.45;;;4.80;;
63499;SDS011;49654;51.142;14.924;2023-12-29T06:49:55;6.20;;;4.97;;
63499;SDS011;49654;51.142;14.924;2023-12-29T06:52:22;5.88;;;4.72;;
63499;SDS011;49654;51.142;14.924;2023-12-29T06:54:49;6.20;;;5.05;;
63499;SDS011;49654;51.142;14.924;2023-12-29T06:57:16;6.07;;;4.55;;
63499;SDS011;49654;51.142;14.924;2023-12-29T06:59:45;6.18;;;4.65;;
63499;SDS011;49654;51.142;14.924;2023-12-29T07:02:11;6.45;;;4.65;;
63499;SDS011;49654;51.142;14.924;2023-12-29T07:04:40;5.03;;;4.35;;
63499;SDS011;49654;51.142;14.924;2023-12-29T07:07:08;5.10;;;4.60;;
63499;SDS011;49654;51.142;14.924;2023-12-29T07:09:37;5.35;;;4.50;;
63499;SDS011;49654;51.142;14.924;2023-12-29T07:12:04;5.15;;;4.55;;
63499;SDS011;49654;51.142;14.924;2023-12-29T07:14:31;5.15;;;4.53;;
63499;SDS011;49654;51.142;14.924;2023-12-29T07:17:00;5.03;;;4.53;;
63499;SDS011;49654;51.142;14.924;2023-12-29T07:19:26;5.45;;;4.95;;
63499;SDS011;49654;51.142;14.924;2023-12-29T07:21:59;5.60;;;4.80;;
63499;SDS011;49654;51.142;14.924;2023-12-29T07:24:26;7.50;;;4.75;;
63499;SDS011;49654;51.142;14.924;2023-12-29T07:26:53;5.45;;;4.20;;
63499;SDS011;49654;51.142;14.924;2023-12-29T07:29:20;4.63;;;4.22;;
63499;SDS011;49654;51.142;14.924;2023-12-29T07:31:47;5.20;;;4.32;;
63499;SDS011;49654;51.142;14.924;2023-12-29T07:34:16;6.80;;;4.30;;
63499;SDS011;49654;51.142;14.924;2023-12-29T07:36:42;5.82;;;4.38;;
63499;SDS011;49654;51.142;14.924;2023-12-29T07:39:09;4.93;;;4.43;;
63499;SDS011;49654;51.142;14.924;2023-12-29T07:41:39;6.72;;;4.78;;
63499;SDS011;49654;51.142;14.924;2023-12-29T07:44:06;5.78;;;4.30;;
63499;SDS011;49654;51.142;14.924;2023-12-29T07:46:33;5.25;;;4.50;;
63499;SDS011;49654;51.142;14.924;2023-12-29T07:49:00;5.13;;;4.15;;
63499;SDS011;49654;51.142;14.924;2023-12-29T07:51:29;4.63;;;4.20;;
63499;SDS011;49654;51.142;14.924;2023-12-29T07:53:57;5.57;;;3.72;;
63499;SDS011;49654;51.142;14.924;2023-12-29T07:56:24;6.43;;;3.83;;
63499;SDS011;49654;51.142;14.924;2023-12-29T07:58:51;4.60;;;4.05;;
63499;SDS011;49654;51.142;14.924;2023-12-29T08:01:17;4.75;;;3.55;;
63499;SDS011;49654;51.142;14.924;2023-12-29T08:03:44;5.15;;;3.80;;
63499;SDS011;49654;51.142;14.924;2023-12-29T08:06:12;6.10;;;4.00;;
63499;SDS011;49654;51.142;14.924;2023-12-29T08:08:40;3.90;;;3.45;;
63499;SDS011;49654;51.142;14.924;2023-12-29T08:11:12;5.38;;;3.25;;
63499;SDS011;49654;51.142;14.924;2023-12-29T08:13:39;3.90;;;3.20;;
63499;SDS011;49654;51.142;14.924;2023-12-29T08:16:06;4.88;;;3.60;;
63499;SDS011;49654;51.142;14.924;2023-12-29T08:18:33;3.25;;;2.95;;
63499;SDS011;49654;51.142;14.924;2023-12-29T08:21:01;3.53;;;3.00;;
63499;SDS011;49654;51.142;14.924;2023-12-29T08:23:28;3.75;;;3.20;;
63499;SDS011;49654;51.142;14.924;2023-12-29T08:25:57;3.17;;;2.83;;
63499;SDS011;49654;51.142;14.924;2023-12-29T08:28:24;3.55;;;3.22;;
63499;SDS011;49654;51.142;14.924;2023-12-29T08:30:51;4.22;;;3.20;;
63499;SDS011;49654;51.142;14.924;2023-12-29T08:33:18;4.47;;;2.95;;
63499;SDS011;49654;51.142;14.924;2023-12-29T08:35:45;3.15;;;2.85;;
63499;SDS011;49654;51.142;14.924;2023-12-29T08:38:12;3.05;;;2.70;;
63499;SDS011;49654;51.142;14.924;2023-12-29T08:40:40;4.85;;;2.80;;
63499;SDS011;49654;51.142;14.924;2023-12-29T08:43:09;3.75;;;3.20;;
63499;SDS011;49654;51.142;14.924;2023-12-29T08:45:36;3.20;;;2.42;;
63499;SDS011;49654;51.142;14.924;2023-12-29T08:48:04;4.20;;;2.50;;
63499;SDS011;49654;51.142;14.924;2023-12-29T08:50:31;3.58;;;2.72;;
63499;SDS011;49654;51.142;14.924;2023-12-29T08:52:58;3.15;;;2.78;;
63499;SDS011;49654;51.142;14.924;2023-12-29T08:55:29;3.25;;;2.83;;
63499;SDS011;49654;51.142;14.924;2023-12-29T08:57:57;3.30;;;2.53;;
63499;SDS011;49654;51.142;14.924;2023-12-29T09:00:25;3.53;;;2.50;;
63499;SDS011;49654;51.142;14.924;2023-12-29T09:02:52;3.42;;;2.60;;
63499;SDS011;49654;51.142;14.924;2023-12-29T09:05:19;3.40;;;2.50;;
63499;SDS011;49654;51.142;14.924;2023-12-29T09:07:47;3.30;;;3.00;;
63499;SDS011;49654;51.142;14.924;2023-12-29T09:10:15;3.30;;;2.50;;
63499;SDS011;49654;51.142;14.924;2023-12-29T09:12:42;4.88;;;2.83;;
63499;SDS011;49654;51.142;14.924;2023-12-29T09:15:09;3.40;;;2.90;;
63499;SDS011;49654;51.142;14.924;2023-12-29T09:17:38;3.63;;;2.67;;
63499;SDS011;49654;51.142;14.924;2023-12-29T09:20:05;3.70;;;2.72;;
63499;SDS011;49654;51.142;14.924;2023-12-29T09:22:33;4.97;;;3.00;;
63499;SDS011;49654;51.142;14.924;2023-12-29T09:25:00;3.20;;;2.67;;
63499;SDS011;49654;51.142;14.924;2023-12-29T09:27:27;2.97;;;2.53;;
63499;SDS011;49654;51.142;14.924;2023-12-29T09:29:54;4.18;;;3.00;;
63499;SDS011;49654;51.142;14.924;2023-12-29T09:32:21;3.40;;;2.28;;
63499;SDS011;49654;51.142;14.924;2023-12-29T09:34:49;2.60;;;2.40;;
63499;SDS011;49654;51.142;14.924;2023-12-29T09:37:17;4.05;;;2.55;;
63499;SDS011;49654;51.142;14.924;2023-12-29T09:39:44;4.68;;;2.53;;
63499;SDS011;49654;51.142;14.924;2023-12-29T09:42:12;3.88;;;2.55;;
63499;SDS011;49654;51.142;14.924;2023-12-29T09:44:44;3.10;;;2.70;;
63499;SDS011;49654;51.142;14.924;2023-12-29T09:47:16;4.18;;;2.80;;
63499;SDS011;49654;51.142;14.924;2023-12-29T09:49:53;3.53;;;2.45;;
63499;SDS011;49654;51.142;14.924;2023-12-29T09:52:25;3.80;;;2.63;;
63499;SDS011;49654;51.142;14.924;2023-12-29T09:54:53;3.35;;;2.38;;
63499;SDS011;49654;51.142;14.924;2023-12-29T09:57:20;3.55;;;2.67;;
63499;SDS011;49654;51.142;14.924;2023-12-29T09:59:48;3.85;;;2.88;;
63499;SDS011;49654;51.142;14.924;2023-12-29T10:02:17;3.38;;;2.90;;
63499;SDS011;49654;51.142;14.924;2023-12-29T10:04:44;3.42;;;2.70;;
63499;SDS011;49654;51.142;14.924;2023-12-29T10:07:13;3.75;;;2.33;;
63499;SDS011;49654;51.142;14.924;2023-12-29T10:09:45;2.38;;;2.08;;
63499;SDS011;49654;51.142;14.924;2023-12-29T10:12:14;3.45;;;2.20;;
63499;SDS011;49654;51.142;14.924;2023-12-29T10:14:44;5.07;;;2.33;;
63499;SDS011;49654;51.142;14.924;2023-12-29T10:17:17;3.17;;;2.55;;
63499;SDS011;49654;51.142;14.924;2023-12-29T10:19:56;4.07;;;2.53;;
63499;SDS011;49654;51.142;14.924;2023-12-29T10:22:33;3.65;;;2.50;;
63499;SDS011;49654;51.142;14.924;2023-12-29T10:25:10;3.58;;;2.60;;
63499;SDS011;49654;51.142;14.924;2023-12-29T10:27:37;3.65;;;2.35;;
63499;SDS011;49654;51.142;14.924;2023-12-29T10:30:05;2.78;;;2.30;;
63499;SDS011;49654;51.142;14.924;2023-12-29T10:32:36;3.03;;;2.08;;
63499;SDS011;49654;51.142;14.924;2023-12-29T10:35:07;3.28;;;2.10;;
63499;SDS011;49654;51.142;14.924;2023-12-29T10:37:37;4.18;;;2.67;;
63499;SDS011;49654;51.142;14.924;2023-12-29T10:40:05;2.80;;;2.30;;
63499;SDS011;49654;51.142;14.924;2023-12-29T10:42:32;4.35;;;2.75;;
63499;SDS011;49654;51.142;14.924;2023-12-29T10:45:06;2.55;;;2.20;;
63499;SDS011;49654;51.142;14.924;2023-12-29T10:47:34;4.05;;;2.10;;
63499;SDS011;49654;51.142;14.924;2023-12-29T10:50:01;2.97;;;2.30;;
63499;SDS011;49654;51.142;14.924;2023-12-29T10:52:30;2.35;;;2.00;;
63499;SDS011;49654;51.142;14.924;2023-12-29T10:55:06;3.33;;;2.00;;
63499;SDS011;49654;51.142;14.924;2023-12-29T10:57:35;3.72;;;2.42;;
63499;SDS011;49654;51.142;14.924;2023-12-29T11:00:03;3.83;;;2.50;;
63499;SDS011;49654;51.142;14.924;2023-12-29T11:02:31;3.05;;;2.38;;
63499;SDS011;49654;51.142;14.924;2023-12-29T11:05:02;2.78;;;2.33;;
63499;SDS011;49654;51.142;14.924;2023-12-29T11:07:31;2.55;;;2.30;;
63499;SDS011;49654;51.142;14.924;2023-12-29T11:10:00;4.88;;;2.90;;
63499;SDS011;49654;51.142;14.924;2023-12-29T11:12:31;5.07;;;2.75;;
63499;SDS011;49654;51.142;14.924;2023-12-29T11:14:59;4.25;;;3.10;;
63499;SDS011;49654;51.142;14.924;2023-12-29T11:17:29;4.35;;;2.70;;
63499;SDS011;49654;51.142;14.924;2023-12-29T11:19:58;3.65;;;2.80;;
63499;SDS011;49654;51.142;14.924;2023-12-29T11:22:27;3.22;;;2.38;;
63499;SDS011;49654;51.142;14.924;2023-12-29T11:24:55;2.75;;;2.35;;
63499;SDS011;49654;51.142;14.924;2023-12-29T11:27:25;3.45;;;2.72;;
63499;SDS011;49654;51.142;14.924;2023-12-29T11:29:56;2.80;;;2.20;;
63499;SDS011;49654;51.142;14.924;2023-12-29T11:32:27;2.80;;;2.30;;
63499;SDS011;49654;51.142;14.924;2023-12-29T11:35:06;4.70;;;2.70;;
63499;SDS011;49654;51.142;14.924;2023-12-29T11:37:45;3.58;;;2.50;;
63499;SDS011;49654;51.142;14.924;2023-12-29T11:40:25;3.45;;;2.80;;
63499;SDS011;49654;51.142;14.924;2023-12-29T11:42:57;3.65;;;2.80;;
63499;SDS011;49654;51.142;14.924;2023-12-29T11:45:29;2.88;;;2.50;;
63499;SDS011;49654;51.142;14.924;2023-12-29T11:48:02;3.65;;;2.50;;
63499;SDS011;49654;51.142;14.924;2023-12-29T11:50:30;4.32;;;2.65;;
63499;SDS011;49654;51.142;14.924;2023-12-29T11:52:58;5.05;;;2.40;;
63499;SDS011;49654;51.142;14.924;2023-12-29T11:55:29;2.97;;;2.10;;
63499;SDS011;49654;51.142;14.924;2023-12-29T11:57:57;3.55;;;2.70;;
63499;SDS011;49654;51.142;14.924;2023-12-29T12:00:41;2.92;;;2.38;;
63499;SDS011;49654;51.142;14.924;2023-12-29T12:03:19;3.38;;;2.42;;
63499;SDS011;49654;51.142;14.924;2023-12-29T12:05:51;3.47;;;2.50;;
63499;SDS011;49654;51.142;14.924;2023-12-29T12:08:27;4.82;;;2.58;;
63499;SDS011;49654;51.142;14.924;2023-12-29T12:10:55;2.83;;;2.40;;
63499;SDS011;49654;51.142;14.924;2023-12-29T12:13:41;3.72;;;2.47;;
63499;SDS011;49654;51.142;14.924;2023-12-29T12:16:10;4.55;;;2.65;;
63499;SDS011;49654;51.142;14.924;2023-12-29T12:19:17;3.75;;;2.70;;
63499;SDS011;49654;51.142;14.924;2023-12-29T12:21:46;4.00;;;2.60;;
63499;SDS011;49654;51.142;14.924;2023-12-29T12:24:18;3.42;;;2.40;;
63499;SDS011;49654;51.142;14.924;2023-12-29T12:26:45;4.28;;;2.40;;
63499;SDS011;49654;51.142;14.924;2023-12-29T12:29:13;4.38;;;2.30;;
63499;SDS011;49654;51.142;14.924;2023-12-29T12:31:52;5.18;;;2.40;;
63499;SDS011;49654;51.142;14.924;2023-12-29T12:34:19;3.10;;;2.50;;
63499;SDS011;49654;51.142;14.924;2023-12-29T12:36:50;3.40;;;2.33;;
63499;SDS011;49654;51.142;14.924;2023-12-29T12:39:17;5.72;;;2.40;;
63499;SDS011;49654;51.142;14.924;2023-12-29T12:41:44;3.67;;;2.47;;
63499;SDS011;49654;51.142;14.924;2023-12-29T12:44:12;3.30;;;2.42;;
63499;SDS011;49654;51.142;14.924;2023-12-29T12:46:40;3.30;;;2.45;;
63499;SDS011;49654;51.142;14.924;2023-12-29T12:49:13;4.57;;;2.80;;
63499;SDS011;49654;51.142;14.924;2023-12-29T12:51:40;2.92;;;2.45;;
63499;SDS011;49654;51.142;14.924;2023-12-29T12:54:09;2.90;;;2.53;;
63499;SDS011;49654;51.142;14.924;2023-12-29T12:56:37;5.50;;;2.60;;
63499;SDS011;49654;51.142;14.924;2023-12-29T12:59:04;4.68;;;2.55;;
63499;SDS011;49654;51.142;14.924;2023-12-29T13:01:33;5.93;;;2.90;;
63499;SDS011;49654;51.142;14.924;2023-12-29T13:04:02;3.05;;;2.67;;
63499;SDS011;49654;51.142;14.924;2023-12-29T13:06:31;3.25;;;2.40;;
63499;SDS011;49654;51.142;14.924;2023-12-29T13:08:59;5.78;;;2.42;;
63499;SDS011;49654;51.142;14.924;2023-12-29T13:11:27;3.88;;;2.55;;
63499;SDS011;49654;51.142;14.924;2023-12-29T13:13:54;3.85;;;2.55;;
63499;SDS011;49654;51.142;14.924;2023-12-29T13:16:28;3.47;;;2.50;;
63499;SDS011;49654;51.142;14.924;2023-12-29T13:18:56;2.95;;;2.60;;
63499;SDS011;49654;51.142;14.924;2023-12-29T13:21:23;4.28;;;2.50;;
63499;SDS011;49654;51.142;14.924;2023-12-29T13:23:52;4.45;;;2.45;;
63499;SDS011;49654;51.142;14.924;2023-12-29T13:26:20;3.97;;;2.45;;
63499;SDS011;49654;51.142;14.924;2023-12-29T13:28:48;5.53;;;2.67;;
63499;SDS011;49654;51.142;14.924;2023-12-29T13:31:15;4.22;;;2.60;;
63499;SDS011;49654;51.142;14.924;2023-12-29T13:33:44;4.25;;;2.15;;
63499;SDS011;49654;51.142;14.924;2023-12-29T13:36:21;3.38;;;2.53;;
63499;SDS011;49654;51.142;14.924;2023-12-29T13:38:57;3.55;;;2.45;;
63499;SDS011;49654;51.142;14.924;2023-12-29T13:41:28;4.35;;;2.30;;
63499;SDS011;49654;51.142;14.924;2023-12-29T13:43:57;2.95;;;2.20;;
63499;SDS011;49654;51.142;14.924;2023-12-29T13:46:26;2.85;;;2.33;;
63499;SDS011;49654;51.142;14.924;2023-12-29T13:48:52;4.55;;;2.38;;
63499;SDS011;49654;51.142;14.924;2023-12-29T13:51:22;5.07;;;2.58;;
63499;SDS011;49654;51.142;14.924;2023-12-29T13:53:58;4.18;;;2.60;;
63499;SDS011;49654;51.142;14.924;2023-12-29T13:56:25;3.40;;;2.78;;
63499;SDS011;49654;51.142;14.924;2023-12-29T13:58:53;4.90;;;2.80;;
63499;SDS011;49654;51.142;14.924;2023-12-29T14:01:20;4.07;;;2.40;;
63499;SDS011;49654;51.142;14.924;2023-12-29T14:03:49;2.25;;;1.90;;
63499;SDS011;49654;51.142;14.924;2023-12-29T14:06:21;3.35;;;2.17;;
63499;SDS011;49654;51.142;14.924;2023-12-29T14:08:54;4.75;;;2.33;;
63499;SDS011;49654;51.142;14.924;2023-12-29T14:11:23;2.25;;;2.00;;
63499;SDS011;49654;51.142;14.924;2023-12-29T14:13:50;4.70;;;2.35;;
63499;SDS011;49654;51.142;14.924;2023-12-29T14:16:16;3.97;;;2.20;;
63499;SDS011;49654;51.142;14.924;2023-12-29T14:18:52;2.08;;;1.88;;
63499;SDS011;49654;51.142;14.924;2023-12-29T14:21:20;3.15;;;2.10;;
63499;SDS011;49654;51.142;14.924;2023-12-29T14:23:57;3.75;;;2.10;;
63499;SDS011;49654;51.142;14.924;2023-12-29T14:26:26;5.03;;;2.60;;
63499;SDS011;49654;51.142;14.924;2023-12-29T14:29:00;3.15;;;2.60;;
63499;SDS011;49654;51.142;14.924;2023-12-29T14:31:34;2.55;;;2.13;;
63499;SDS011;49654;51.142;14.924;2023-12-29T14:34:03;3.42;;;2.00;;
63499;SDS011;49654;51.142;14.924;2023-12-29T14:36:31;4.00;;;2.17;;
63499;SDS011;49654;51.142;14.924;2023-12-29T14:38:58;3.72;;;2.10;;
63499;SDS011;49654;51.142;14.924;2023-12-29T14:41:26;3.78;;;2.20;;
63499;SDS011;49654;51.142;14.924;2023-12-29T14:43:53;3.15;;;2.30;;